createdAt,value
2022-10-11T00:01:04.608Z,10.82
2022-10-11T00:04:06.293Z,10.90
2022-10-11T00:07:07.894Z,11.30
2022-10-11T00:10:09.810Z,11.27
2022-10-11T00:13:11.412Z,11.07
2022-10-11T00:16:13.338Z,11.85
2022-10-11T00:19:14.875Z,11.50
2022-10-11T00:22:16.506Z,11.73
2022-10-11T00:25:21.818Z,12.10
2022-10-11T00:28:23.425Z,11.43
2022-10-11T00:31:25.076Z,12.15
2022-10-11T00:34:26.644Z,11.20
2022-10-11T00:37:28.217Z,11.65
2022-10-11T00:40:29.775Z,12.15
2022-10-11T00:43:31.534Z,12.40
2022-10-11T00:46:33.282Z,12.23
2022-10-11T00:49:53.685Z,11.83
2022-10-11T00:52:57.115Z,11.93
2022-10-11T00:56:08.830Z,12.30
2022-10-11T00:59:13.043Z,11.77
2022-10-11T01:02:14.683Z,10.82
2022-10-11T01:05:29.137Z,12.33
2022-10-11T01:08:31.730Z,12.02
2022-10-11T01:11:37.291Z,12.55
2022-10-11T01:14:54.676Z,11.45
2022-10-11T01:18:05.338Z,11.65
2022-10-11T01:21:28.856Z,12.57
2022-10-11T01:24:36.408Z,12.02
2022-10-11T01:28:07.995Z,12.50
2022-10-11T01:31:23.137Z,11.85
2022-10-11T01:34:46.710Z,12.02
2022-10-11T01:37:59.999Z,12.17
2022-10-11T01:41:10.289Z,12.13
2022-10-11T01:44:11.900Z,12.02
2022-10-11T01:47:14.184Z,12.35
2022-10-11T01:50:55.341Z,12.82
2022-10-11T01:54:08.787Z,12.10
2022-10-11T01:57:16.224Z,12.27
2022-10-11T02:00:25.929Z,12.10
2022-10-11T02:03:34.068Z,13.23
2022-10-11T02:06:43.853Z,13.23
2022-10-11T02:09:50.883Z,12.95
2022-10-11T02:13:17.567Z,13.57
2022-10-11T02:16:20.610Z,13.30
2022-10-11T02:19:24.806Z,12.73
2022-10-11T02:22:35.844Z,12.80
2022-10-11T02:25:37.806Z,12.45
2022-10-11T02:28:39.915Z,13.35
2022-10-11T02:31:41.683Z,14.02
2022-10-11T02:34:50.076Z,14.13
2022-10-11T02:38:00.580Z,13.77
2022-10-11T02:41:11.861Z,13.30
2022-10-11T02:44:20.696Z,13.27
2022-10-11T02:47:22.261Z,14.10
2022-10-11T02:50:23.910Z,14.23
2022-10-11T02:53:25.836Z,14.20
2022-10-11T02:56:27.432Z,14.73
2022-10-11T02:59:29.026Z,14.57
2022-10-11T03:02:30.621Z,14.70
2022-10-11T03:05:37.166Z,14.80
2022-10-11T03:08:38.762Z,14.87
2022-10-11T03:11:40.340Z,14.45
2022-10-11T03:14:41.913Z,13.82
2022-10-11T03:17:43.510Z,15.32
2022-10-11T03:20:45.085Z,14.13
2022-10-11T03:23:46.661Z,15.47
2022-10-11T03:26:48.345Z,14.95
2022-10-11T03:29:49.879Z,16.00
2022-10-11T03:32:51.446Z,15.70
2022-10-11T03:35:52.999Z,15.83
2022-10-11T03:38:54.556Z,15.83
2022-10-11T03:41:56.116Z,15.30
2022-10-11T03:44:59.787Z,15.13
2022-10-11T03:48:01.495Z,16.13
2022-10-11T03:51:03.125Z,16.23
2022-10-11T03:54:04.742Z,15.20
2022-10-11T03:57:06.379Z,15.15
2022-10-11T04:00:08.429Z,15.57
2022-10-11T04:03:10.029Z,16.20
2022-10-11T04:06:11.625Z,15.43
2022-10-11T04:09:13.199Z,15.43
2022-10-11T04:12:14.798Z,15.77
2022-10-11T04:15:16.637Z,14.98
2022-10-11T04:18:18.249Z,15.50
2022-10-11T04:21:19.818Z,16.90
2022-10-11T04:24:21.398Z,16.00
2022-10-11T04:27:23.273Z,15.38
2022-10-11T04:30:24.832Z,16.70
2022-10-11T04:33:26.461Z,17.98
2022-10-11T04:36:28.198Z,17.27
2022-10-11T04:39:29.802Z,17.00
2022-10-11T04:42:31.387Z,17.27
2022-10-11T04:45:33.023Z,16.80
2022-10-11T04:48:34.654Z,16.70
2022-10-11T04:51:36.299Z,17.20
2022-10-11T04:54:37.842Z,16.30
2022-10-11T04:57:39.471Z,15.75
2022-10-11T05:00:41.873Z,17.40
2022-10-11T05:03:43.508Z,16.23
2022-10-11T05:06:45.140Z,16.47
2022-10-11T05:09:46.790Z,16.30
2022-10-11T05:12:48.374Z,16.25
2022-10-11T05:15:49.981Z,17.70
2022-10-11T05:18:51.556Z,17.00
2022-10-11T05:21:54.947Z,16.87
2022-10-11T05:24:56.701Z,16.90
2022-10-11T05:27:58.284Z,17.42
2022-10-11T05:30:59.875Z,16.73
2022-10-11T05:34:01.438Z,16.48
2022-10-11T05:37:03.120Z,15.60
2022-10-11T05:40:05.204Z,16.30
2022-10-11T05:43:07.127Z,15.98
2022-10-11T05:46:08.983Z,14.85
2022-10-11T05:49:10.686Z,15.48
2022-10-11T05:52:13.261Z,16.57
2022-10-11T05:55:14.845Z,15.87
2022-10-11T05:58:18.622Z,16.35
2022-10-11T06:01:24.961Z,15.60
2022-10-11T06:04:27.076Z,15.75
2022-10-11T06:07:28.673Z,15.90
2022-10-11T06:10:30.219Z,14.83
2022-10-11T06:13:32.298Z,15.77
2022-10-11T06:16:33.910Z,15.00
2022-10-11T06:19:35.805Z,14.82
2022-10-11T06:22:37.365Z,15.03
2022-10-11T06:25:39.036Z,15.50
2022-10-11T06:28:40.920Z,14.77
2022-10-11T06:31:46.085Z,14.38
2022-10-11T06:34:47.677Z,14.23
2022-10-11T06:37:49.362Z,14.83
2022-10-11T06:40:50.953Z,14.07
2022-10-11T06:43:52.546Z,15.00
2022-10-11T06:46:54.186Z,14.52
2022-10-11T06:49:55.746Z,14.98
2022-10-11T06:52:57.547Z,15.60
2022-10-11T06:56:07.756Z,14.37
2022-10-11T06:59:09.595Z,14.15
2022-10-11T07:02:11.259Z,15.05
2022-10-11T07:05:12.901Z,14.38
2022-10-11T07:08:14.514Z,14.87
2022-10-11T07:11:26.928Z,13.93
2022-10-11T07:14:28.631Z,14.82
2022-10-11T07:17:30.361Z,14.07
2022-10-11T07:20:32.280Z,15.13
2022-10-11T07:23:33.936Z,14.70
2022-10-11T07:26:38.610Z,14.40
2022-10-11T07:29:40.871Z,14.95
2022-10-11T07:32:42.584Z,15.00
2022-10-11T07:35:48.216Z,14.43
2022-10-11T07:38:50.602Z,13.40
2022-10-11T07:41:52.248Z,13.23
2022-10-11T07:44:54.334Z,13.73
2022-10-11T07:47:56.704Z,13.07
2022-10-11T07:51:03.407Z,13.05
2022-10-11T07:54:07.438Z,13.33
2022-10-11T07:57:09.266Z,13.13
2022-10-11T08:00:11.413Z,14.27
2022-10-11T08:03:15.448Z,13.80
2022-10-11T08:06:18.953Z,13.15
2022-10-11T08:09:20.556Z,13.83
2022-10-11T08:12:22.231Z,12.67
2022-10-11T08:15:23.838Z,12.98
2022-10-11T08:18:25.701Z,13.57
2022-10-11T08:21:27.287Z,13.40
2022-10-11T08:24:28.885Z,12.30
2022-10-11T08:27:30.597Z,12.90
2022-10-11T08:30:32.838Z,12.90
2022-10-11T08:33:34.633Z,14.40
2022-10-11T08:36:36.374Z,13.88
2022-10-11T08:39:37.957Z,14.47
2022-10-11T08:42:43.443Z,14.27
2022-10-11T08:45:52.398Z,13.65
2022-10-11T08:48:53.998Z,13.32
2022-10-11T08:52:00.198Z,13.90
2022-10-11T08:55:08.239Z,13.93
2022-10-11T08:58:15.719Z,13.03
2022-10-11T09:01:20.909Z,14.45
2022-10-11T09:04:22.539Z,12.68
2022-10-11T09:07:33.395Z,12.02
2022-10-11T09:10:50.112Z,12.33
2022-10-11T09:14:00.611Z,12.30
2022-10-11T09:17:28.650Z,11.55
2022-10-11T09:20:44.571Z,13.13
2022-10-11T09:24:17.177Z,12.93
2022-10-11T09:27:33.057Z,12.47
2022-10-11T09:30:50.991Z,11.30
2022-10-11T09:33:52.845Z,11.32
2022-10-11T09:37:14.928Z,11.65
2022-10-11T09:40:19.319Z,11.27
2022-10-11T09:43:21.057Z,11.90
2022-10-11T09:46:42.848Z,11.10
2022-10-11T09:50:06.642Z,11.10
2022-10-11T09:53:08.333Z,11.48
2022-10-11T09:56:10.203Z,11.10
2022-10-11T09:59:31.418Z,11.03
2022-10-11T10:02:42.201Z,11.53
2022-10-11T10:05:43.771Z,12.02
2022-10-11T10:08:47.368Z,11.23
2022-10-11T10:11:48.952Z,11.77
2022-10-11T10:15:06.172Z,11.40
2022-10-11T10:18:10.494Z,10.63
2022-10-11T10:21:13.727Z,10.77
2022-10-11T10:24:51.129Z,10.65
2022-10-11T10:27:59.811Z,11.27
2022-10-11T10:31:01.395Z,11.73
2022-10-11T10:34:03.152Z,11.87
2022-10-11T10:37:43.352Z,10.80
2022-10-11T10:40:49.814Z,10.77
2022-10-11T10:43:56.779Z,11.30
2022-10-11T10:47:21.430Z,11.27
2022-10-11T10:50:27.417Z,11.17
2022-10-11T10:53:49.640Z,10.30
2022-10-11T10:56:53.510Z,11.52
2022-10-11T10:59:57.987Z,10.52
2022-10-11T11:03:03.909Z,10.43
2022-10-11T11:06:12.306Z,10.93
2022-10-11T11:09:30.089Z,11.45
2022-10-11T11:12:31.594Z,11.18
2022-10-11T11:15:46.709Z,10.55
2022-10-11T11:19:00.380Z,10.60
2022-10-11T11:22:17.280Z,10.73
2022-10-11T11:25:31.170Z,10.43
2022-10-11T11:28:45.131Z,10.57
2022-10-11T11:31:46.769Z,10.65
2022-10-11T11:34:52.031Z,11.57
2022-10-11T11:38:02.576Z,11.60
2022-10-11T11:41:13.216Z,10.65
2022-10-11T11:44:27.141Z,11.23
2022-10-11T11:47:40.640Z,10.48
2022-10-11T11:50:43.949Z,10.80
2022-10-11T11:54:08.344Z,10.60
2022-10-11T11:57:23.335Z,10.75
2022-10-11T12:00:27.720Z,10.90
2022-10-11T12:03:41.776Z,11.48
2022-10-11T12:07:04.087Z,11.47
2022-10-11T12:10:24.528Z,10.40
2022-10-11T12:13:31.319Z,11.18
2022-10-11T12:16:34.384Z,11.55
2022-10-11T12:19:37.275Z,11.40
2022-10-11T12:22:49.465Z,11.00
2022-10-11T12:26:28.190Z,11.00
2022-10-11T12:29:47.060Z,11.30
2022-10-11T12:32:49.178Z,10.23
2022-10-11T12:35:53.760Z,11.50
2022-10-11T12:39:20.039Z,11.63
2022-10-11T12:42:32.412Z,12.27
2022-10-11T12:45:34.377Z,11.73
2022-10-11T12:48:49.518Z,12.18
2022-10-11T12:51:53.965Z,12.50
2022-10-11T12:55:15.780Z,12.20
2022-10-11T12:58:25.785Z,12.60
2022-10-11T13:01:27.479Z,12.18
2022-10-11T13:04:30.407Z,12.38
2022-10-11T13:07:32.086Z,12.73
2022-10-11T13:10:45.339Z,12.20
2022-10-11T13:13:52.525Z,12.20
2022-10-11T13:17:03.673Z,11.85
2022-10-11T13:20:17.919Z,11.52
2022-10-11T13:23:29.960Z,12.18
2022-10-11T13:26:31.736Z,11.10
2022-10-11T13:29:36.752Z,12.03
2022-10-11T13:32:38.555Z,12.52
2022-10-11T13:35:40.138Z,12.85
2022-10-11T13:38:41.788Z,11.80
2022-10-11T13:41:43.420Z,11.20
2022-10-11T13:44:45.053Z,11.37
2022-10-11T13:47:47.859Z,10.98
2022-10-11T13:51:28.049Z,11.23
2022-10-11T13:54:54.535Z,10.90
2022-10-11T13:57:57.105Z,11.17
2022-10-11T14:01:02.999Z,11.40
2022-10-11T14:04:06.812Z,10.98
2022-10-11T14:07:26.223Z,11.13
2022-10-11T14:10:27.929Z,11.40
2022-10-11T14:13:36.972Z,11.13
2022-10-11T14:16:38.548Z,11.30
2022-10-11T14:19:40.157Z,11.68
2022-10-11T14:22:41.728Z,12.10
2022-10-11T14:25:43.298Z,12.18
2022-10-11T14:28:45.411Z,11.50
2022-10-11T14:31:47.060Z,11.87
2022-10-11T14:34:48.775Z,12.52
2022-10-11T14:37:50.599Z,12.05
2022-10-11T14:40:52.432Z,12.55
2022-10-11T14:43:56.419Z,13.20
2022-10-11T14:46:58.029Z,12.77
2022-10-11T14:49:59.613Z,11.73
2022-10-11T14:53:01.432Z,11.70
2022-10-11T14:56:03.211Z,12.65
2022-10-11T14:59:05.113Z,13.00
2022-10-11T15:02:07.966Z,13.67
2022-10-11T15:05:09.513Z,12.70
2022-10-11T15:08:11.133Z,11.52
2022-10-11T15:11:13.626Z,13.40
2022-10-11T15:14:15.192Z,12.13
2022-10-11T15:17:16.870Z,11.60
2022-10-11T15:20:32.789Z,11.35
2022-10-11T15:23:34.522Z,11.75
2022-10-11T15:26:36.183Z,11.05
2022-10-11T15:29:37.729Z,11.67
2022-10-11T15:32:39.280Z,11.30
2022-10-11T15:35:40.854Z,11.20
2022-10-11T15:38:43.147Z,11.48
2022-10-11T15:41:44.761Z,11.93
2022-10-11T15:44:46.326Z,10.47
2022-10-11T15:47:48.256Z,10.97
2022-10-11T15:50:51.870Z,11.70
2022-10-11T15:53:53.425Z,10.60
2022-10-11T15:56:55.241Z,10.80
2022-10-11T15:59:56.925Z,10.77
2022-10-11T16:02:58.721Z,11.10
2022-10-11T16:06:04.991Z,11.55
2022-10-11T16:09:07.104Z,10.55
2022-10-11T16:12:08.761Z,10.70
2022-10-11T16:15:10.656Z,10.73
2022-10-11T16:18:14.607Z,11.47
2022-10-11T16:21:16.283Z,11.38
2022-10-11T16:24:17.832Z,12.20
2022-10-11T16:27:19.412Z,11.77
2022-10-11T16:30:21.101Z,10.80
2022-10-11T16:33:22.931Z,10.10
2022-10-11T16:36:40.187Z,11.43
2022-10-11T16:39:41.832Z,12.02
2022-10-11T16:42:44.168Z,11.85
2022-10-11T16:45:45.760Z,11.93
2022-10-11T16:48:47.797Z,11.23
2022-10-11T16:51:50.573Z,12.27
2022-10-11T16:54:53.436Z,12.15
2022-10-11T16:57:55.007Z,12.63
2022-10-11T17:00:56.646Z,12.63
2022-10-11T17:03:58.271Z,12.90
2022-10-11T17:06:59.873Z,12.95
2022-10-11T17:10:01.666Z,13.02
2022-10-11T17:13:03.226Z,12.52
2022-10-11T17:16:05.392Z,13.03
2022-10-11T17:19:14.627Z,12.83
2022-10-11T17:22:17.674Z,13.60
2022-10-11T17:25:19.264Z,12.73
2022-10-11T17:28:20.904Z,12.88
2022-10-11T17:31:22.862Z,13.20
2022-10-11T17:34:24.636Z,14.37
2022-10-11T17:37:26.198Z,13.35
2022-10-11T17:40:27.852Z,13.60
2022-10-11T17:43:29.518Z,13.23
2022-10-11T17:46:33.907Z,14.60
2022-10-11T17:49:35.667Z,14.00
2022-10-11T17:52:37.231Z,13.20
2022-10-11T17:55:42.388Z,13.35
2022-10-11T17:58:44.187Z,12.27
2022-10-11T18:01:45.772Z,12.47
2022-10-11T18:04:47.518Z,12.93
2022-10-11T18:07:52.804Z,12.18
2022-10-11T18:10:54.377Z,12.10
2022-10-11T18:13:55.979Z,11.68
2022-10-11T18:16:57.725Z,11.17
2022-10-11T18:19:59.711Z,10.73
2022-10-11T18:23:01.498Z,9.77
2022-10-11T18:26:19.579Z,9.75
2022-10-11T18:29:21.192Z,10.45
2022-10-11T18:32:22.774Z,9.70
2022-10-11T18:35:24.358Z,10.23
2022-10-11T18:38:25.954Z,9.75
2022-10-11T18:41:32.013Z,9.80
2022-10-11T18:44:33.678Z,9.85
2022-10-11T18:47:35.214Z,9.20
2022-10-11T18:50:38.007Z,9.57
2022-10-11T18:53:39.608Z,9.23
2022-10-11T18:56:41.231Z,9.40
2022-10-11T18:59:42.803Z,9.95
2022-10-11T19:02:44.391Z,9.47
2022-10-11T19:05:46.204Z,9.70
2022-10-11T19:08:52.155Z,9.70
2022-10-11T19:11:54.658Z,9.60
2022-10-11T19:14:57.118Z,10.63
2022-10-11T19:17:58.793Z,10.10
2022-10-11T19:21:08.483Z,11.37
2022-10-11T19:24:10.244Z,11.10
2022-10-11T19:27:11.805Z,10.55
2022-10-11T19:30:13.437Z,10.45
2022-10-11T19:33:14.993Z,11.27
2022-10-11T19:36:16.737Z,11.20
2022-10-11T19:39:18.421Z,11.02
2022-10-11T19:42:20.148Z,11.38
2022-10-11T19:45:21.709Z,11.13
2022-10-11T19:48:23.258Z,10.83
2022-10-11T19:51:26.071Z,11.10
2022-10-11T19:54:27.681Z,11.95
2022-10-11T19:57:29.378Z,12.13
2022-10-11T20:00:31.133Z,12.30
2022-10-11T20:03:32.764Z,12.20
2022-10-11T20:06:38.594Z,13.47
2022-10-11T20:09:40.718Z,12.02
2022-10-11T20:12:45.782Z,12.57
2022-10-11T20:15:47.649Z,12.43
2022-10-11T20:18:49.258Z,12.43
2022-10-11T20:21:52.136Z,13.10
2022-10-11T20:24:53.728Z,13.40
2022-10-11T20:27:55.283Z,13.18
2022-10-11T20:30:57.040Z,13.40
2022-10-11T20:34:01.462Z,14.97
2022-10-11T20:37:03.017Z,15.13
2022-10-11T20:40:05.015Z,14.93
2022-10-11T20:43:06.935Z,14.77
2022-10-11T20:46:10.221Z,15.30
2022-10-11T20:49:11.854Z,15.37
2022-10-11T20:52:13.497Z,15.63
2022-10-11T20:55:15.207Z,15.93
2022-10-11T20:58:17.010Z,15.82
2022-10-11T21:01:20.557Z,14.85
2022-10-11T21:04:22.233Z,15.73
2022-10-11T21:07:23.885Z,15.47
2022-10-11T21:10:25.460Z,15.15
2022-10-11T21:13:27.151Z,15.40
2022-10-11T21:16:33.064Z,15.50
2022-10-11T21:19:34.637Z,16.13
2022-10-11T21:22:36.541Z,16.00
2022-10-11T21:25:38.382Z,15.68
2022-10-11T21:28:40.358Z,15.15
2022-10-11T21:31:41.998Z,15.85
2022-10-11T21:34:43.559Z,17.00
2022-10-11T21:37:45.097Z,17.00
2022-10-11T21:40:47.003Z,17.23
2022-10-11T21:43:48.754Z,16.60
2022-10-11T21:47:07.381Z,16.08
2022-10-11T21:50:09.500Z,16.20
2022-10-11T21:53:11.252Z,16.30
2022-10-11T21:56:12.841Z,15.48
2022-10-11T21:59:14.496Z,16.23
2022-10-11T22:02:16.061Z,16.00
2022-10-11T22:05:17.877Z,16.93
2022-10-11T22:08:19.571Z,16.63
2022-10-11T22:11:21.190Z,16.33
2022-10-11T22:14:22.777Z,16.88
2022-10-11T22:17:24.399Z,16.40
2022-10-11T22:20:26.055Z,17.33
2022-10-11T22:23:27.617Z,17.17
2022-10-11T22:26:30.762Z,16.95
2022-10-11T22:29:34.388Z,16.75
2022-10-11T22:32:36.427Z,16.50
2022-10-11T22:35:38.262Z,16.13
2022-10-11T22:38:41.186Z,16.10
2022-10-11T22:41:42.760Z,16.75
2022-10-11T22:44:44.330Z,16.45
2022-10-11T22:47:45.876Z,16.15
2022-10-11T22:50:47.532Z,16.03
2022-10-11T22:53:49.117Z,18.57
2022-10-11T22:56:50.688Z,19.15
2022-10-11T22:59:52.263Z,17.52
2022-10-11T23:02:58.042Z,18.50
2022-10-11T23:05:59.654Z,18.33
2022-10-11T23:09:02.332Z,18.60
2022-10-11T23:12:04.045Z,19.23
2022-10-11T23:15:06.047Z,19.60
2022-10-11T23:18:12.075Z,20.83
2022-10-11T23:21:13.623Z,21.17
2022-10-11T23:24:15.236Z,21.57
2022-10-11T23:27:16.893Z,22.83
2022-10-11T23:30:18.532Z,22.27
2022-10-11T23:33:24.374Z,21.75
2022-10-11T23:36:26.206Z,22.97
2022-10-11T23:39:27.968Z,22.30
2022-10-11T23:42:29.552Z,23.25
2022-10-11T23:45:31.117Z,23.55
2022-10-11T23:48:35.749Z,23.55
2022-10-11T23:51:37.319Z,23.60
2022-10-11T23:54:38.908Z,23.93
2022-10-11T23:57:40.728Z,23.55
